sensor_id;sensor_type;location;lat;lon;timestamp;P1;durP1;ratioP1;P2;durP2;ratioP2
73102;SDS011;61294;65.988;29.172;2024-01-15T00:02:05;0.55;;;0.20;;
73102;SDS011;61294;65.988;29.172;2024-01-15T00:04:36;0.22;;;0.20;;
73102;SDS011;61294;65.988;29.172;2024-01-15T00:07:08;0.10;;;0.10;;
73102;SDS011;61294;65.988;29.172;2024-01-15T00:09:34;0.20;;;0.20;;
73102;SDS011;61294;65.988;29.172;2024-01-15T00:12:01;0.20;;;0.20;;
73102;SDS011;61294;65.988;29.172;2024-01-15T00:14:27;1.95;;;0.30;;
73102;SDS011;61294;65.988;29.172;2024-01-15T00:16:53;0.20;;;0.20;;
73102;SDS011;61294;65.988;29.172;2024-01-15T00:19:20;0.35;;;0.20;;
73102;SDS011;61294;65.988;29.172;2024-01-15T00:21:47;0.20;;;0.20;;
73102;SDS011;61294;65.988;29.172;2024-01-15T00:24:13;0.30;;;0.20;;
73102;SDS011;61294;65.988;29.172;2024-01-15T00:26:39;0.82;;;0.40;;
73102;SDS011;61294;65.988;29.172;2024-01-15T00:29:08;0.20;;;0.13;;
73102;SDS011;61294;65.988;29.172;2024-01-15T00:31:34;0.10;;;0.10;;
73102;SDS011;61294;65.988;29.172;2024-01-15T00:34:00;1.13;;;0.20;;
73102;SDS011;61294;65.988;29.172;2024-01-15T00:36:26;0.10;;;0.10;;
73102;SDS011;61294;65.988;29.172;2024-01-15T00:38:53;0.57;;;0.30;;
73102;SDS011;61294;65.988;29.172;2024-01-15T00:41:18;0.28;;;0.25;;
73102;SDS011;61294;65.988;29.172;2024-01-15T00:43:45;0.13;;;0.13;;
73102;SDS011;61294;65.988;29.172;2024-01-15T00:46:11;0.35;;;0.35;;
73102;SDS011;61294;65.988;29.172;2024-01-15T00:48:37;0.10;;;0.10;;
73102;SDS011;61294;65.988;29.172;2024-01-15T00:51:06;0.22;;;0.13;;
73102;SDS011;61294;65.988;29.172;2024-01-15T00:53:32;0.32;;;0.22;;
73102;SDS011;61294;65.988;29.172;2024-01-15T00:55:58;0.20;;;0.20;;
73102;SDS011;61294;65.988;29.172;2024-01-15T00:58:25;0.20;;;0.10;;
73102;SDS011;61294;65.988;29.172;2024-01-15T01:00:51;0.20;;;0.20;;
73102;SDS011;61294;65.988;29.172;2024-01-15T01:03:17;0.30;;;0.20;;
73102;SDS011;61294;65.988;29.172;2024-01-15T01:05:43;0.28;;;0.28;;
73102;SDS011;61294;65.988;29.172;2024-01-15T01:08:10;0.95;;;0.20;;
73102;SDS011;61294;65.988;29.172;2024-01-15T01:10:35;0.17;;;0.10;;
73102;SDS011;61294;65.988;29.172;2024-01-15T01:13:02;0.45;;;0.20;;
73102;SDS011;61294;65.988;29.172;2024-01-15T01:15:28;0.17;;;0.10;;
73102;SDS011;61294;65.988;29.172;2024-01-15T01:17:54;0.95;;;0.30;;
73102;SDS011;61294;65.988;29.172;2024-01-15T01:20:20;0.77;;;0.30;;
73102;SDS011;61294;65.988;29.172;2024-01-15T01:22:46;0.38;;;0.10;;
73102;SDS011;61294;65.988;29.172;2024-01-15T01:25:12;0.10;;;0.10;;
73102;SDS011;61294;65.988;29.172;2024-01-15T01:27:38;0.13;;;0.13;;
73102;SDS011;61294;65.988;29.172;2024-01-15T01:30:04;1.05;;;0.40;;
73102;SDS011;61294;65.988;29.172;2024-01-15T01:32:30;0.32;;;0.17;;
73102;SDS011;61294;65.988;29.172;2024-01-15T01:34:56;0.20;;;0.20;;
73102;SDS011;61294;65.988;29.172;2024-01-15T01:37:22;0.17;;;0.10;;
73102;SDS011;61294;65.988;29.172;2024-01-15T01:39:48;0.25;;;0.22;;
73102;SDS011;61294;65.988;29.172;2024-01-15T01:42:14;0.22;;;0.22;;
73102;SDS011;61294;65.988;29.172;2024-01-15T01:44:39;0.20;;;0.15;;
73102;SDS011;61294;65.988;29.172;2024-01-15T01:47:05;0.20;;;0.15;;
73102;SDS011;61294;65.988;29.172;2024-01-15T01:49:31;0.20;;;0.20;;
73102;SDS011;61294;65.988;29.172;2024-01-15T01:51:58;0.10;;;0.10;;
73102;SDS011;61294;65.988;29.172;2024-01-15T01:54:27;0.65;;;0.20;;
73102;SDS011;61294;65.988;29.172;2024-01-15T01:56:55;0.20;;;0.20;;
73102;SDS011;61294;65.988;29.172;2024-01-15T01:59:22;0.20;;;0.20;;
73102;SDS011;61294;65.988;29.172;2024-01-15T02:01:50;0.25;;;0.25;;
73102;SDS011;61294;65.988;29.172;2024-01-15T02:04:18;0.25;;;0.22;;
73102;SDS011;61294;65.988;29.172;2024-01-15T02:06:44;1.10;;;0.30;;
73102;SDS011;61294;65.988;29.172;2024-01-15T02:09:10;0.60;;;0.38;;
73102;SDS011;61294;65.988;29.172;2024-01-15T02:11:40;0.20;;;0.20;;
73102;SDS011;61294;65.988;29.172;2024-01-15T02:14:08;0.20;;;0.20;;
73102;SDS011;61294;65.988;29.172;2024-01-15T02:16:34;0.65;;;0.40;;
73102;SDS011;61294;65.988;29.172;2024-01-15T02:19:00;0.20;;;0.20;;
73102;SDS011;61294;65.988;29.172;2024-01-15T02:21:26;0.38;;;0.20;;
73102;SDS011;61294;65.988;29.172;2024-01-15T02:23:54;0.17;;;0.17;;
73102;SDS011;61294;65.988;29.172;2024-01-15T02:26:20;2.00;;;0.32;;
73102;SDS011;61294;65.988;29.172;2024-01-15T02:28:47;5.28;;;1.27;;
73102;SDS011;61294;65.988;29.172;2024-01-15T02:31:13;0.10;;;0.10;;
73102;SDS011;61294;65.988;29.172;2024-01-15T02:33:39;2.38;;;0.38;;
73102;SDS011;61294;65.988;29.172;2024-01-15T02:36:07;0.20;;;0.20;;
73102;SDS011;61294;65.988;29.172;2024-01-15T02:38:33;0.20;;;0.17;;
73102;SDS011;61294;65.988;29.172;2024-01-15T02:40:59;0.80;;;0.30;;
73102;SDS011;61294;65.988;29.172;2024-01-15T02:43:25;0.38;;;0.30;;
73102;SDS011;61294;65.988;29.172;2024-01-15T02:45:50;0.52;;;0.30;;
73102;SDS011;61294;65.988;29.172;2024-01-15T02:48:16;1.25;;;0.10;;
73102;SDS011;61294;65.988;29.172;2024-01-15T02:50:42;0.20;;;0.20;;
73102;SDS011;61294;65.988;29.172;2024-01-15T02:53:08;0.95;;;0.30;;
73102;SDS011;61294;65.988;29.172;2024-01-15T02:55:34;0.63;;;0.25;;
73102;SDS011;61294;65.988;29.172;2024-01-15T02:57:59;1.85;;;0.30;;
73102;SDS011;61294;65.988;29.172;2024-01-15T03:00:25;1.40;;;0.28;;
73102;SDS011;61294;65.988;29.172;2024-01-15T03:02:51;0.25;;;0.25;;
73102;SDS011;61294;65.988;29.172;2024-01-15T03:05:17;0.38;;;0.20;;
73102;SDS011;61294;65.988;29.172;2024-01-15T03:07:43;0.60;;;0.20;;
73102;SDS011;61294;65.988;29.172;2024-01-15T03:10:09;0.35;;;0.25;;
73102;SDS011;61294;65.988;29.172;2024-01-15T03:12:35;0.35;;;0.35;;
73102;SDS011;61294;65.988;29.172;2024-01-15T03:15:00;2.25;;;0.20;;
73102;SDS011;61294;65.988;29.172;2024-01-15T03:17:26;0.63;;;0.30;;
73102;SDS011;61294;65.988;29.172;2024-01-15T03:19:52;0.00;;;0.00;;
73102;SDS011;61294;65.988;29.172;2024-01-15T03:22:18;2.67;;;0.32;;
73102;SDS011;61294;65.988;29.172;2024-01-15T03:24:44;0.68;;;0.20;;
73102;SDS011;61294;65.988;29.172;2024-01-15T03:27:10;0.45;;;0.28;;
73102;SDS011;61294;65.988;29.172;2024-01-15T03:29:36;0.20;;;0.10;;
73102;SDS011;61294;65.988;29.172;2024-01-15T03:32:01;0.57;;;0.30;;
73102;SDS011;61294;65.988;29.172;2024-01-15T03:34:27;0.22;;;0.10;;
73102;SDS011;61294;65.988;29.172;2024-01-15T03:36:53;0.65;;;0.15;;
73102;SDS011;61294;65.988;29.172;2024-01-15T03:39:19;0.20;;;0.15;;
73102;SDS011;61294;65.988;29.172;2024-01-15T03:41:45;0.20;;;0.10;;
73102;SDS011;61294;65.988;29.172;2024-01-15T03:44:11;0.70;;;0.40;;
73102;SDS011;61294;65.988;29.172;2024-01-15T03:46:36;0.40;;;0.32;;
73102;SDS011;61294;65.988;29.172;2024-01-15T03:49:02;0.55;;;0.22;;
73102;SDS011;61294;65.988;29.172;2024-01-15T03:51:28;0.10;;;0.10;;
73102;SDS011;61294;65.988;29.172;2024-01-15T03:53:54;0.68;;;0.30;;
73102;SDS011;61294;65.988;29.172;2024-01-15T03:56:20;0.10;;;0.10;;
73102;SDS011;61294;65.988;29.172;2024-01-15T03:58:45;0.45;;;0.30;;
73102;SDS011;61294;65.988;29.172;2024-01-15T04:01:11;0.17;;;0.17;;
73102;SDS011;61294;65.988;29.172;2024-01-15T04:03:37;0.70;;;0.32;;
73102;SDS011;61294;65.988;29.172;2024-01-15T04:06:03;0.00;;;0.00;;
73102;SDS011;61294;65.988;29.172;2024-01-15T04:08:29;1.33;;;0.40;;
73102;SDS011;61294;65.988;29.172;2024-01-15T04:10:55;0.57;;;0.30;;
73102;SDS011;61294;65.988;29.172;2024-01-15T04:13:21;0.17;;;0.17;;
73102;SDS011;61294;65.988;29.172;2024-01-15T04:15:47;0.40;;;0.40;;
73102;SDS011;61294;65.988;29.172;2024-01-15T04:18:15;2.63;;;0.30;;
73102;SDS011;61294;65.988;29.172;2024-01-15T04:20:43;0.35;;;0.22;;
73102;SDS011;61294;65.988;29.172;2024-01-15T04:23:08;0.47;;;0.40;;
73102;SDS011;61294;65.988;29.172;2024-01-15T04:25:35;1.13;;;0.38;;
73102;SDS011;61294;65.988;29.172;2024-01-15T04:28:00;1.48;;;0.50;;
73102;SDS011;61294;65.988;29.172;2024-01-15T04:30:26;0.30;;;0.30;;
73102;SDS011;61294;65.988;29.172;2024-01-15T04:32:52;0.47;;;0.45;;
73102;SDS011;61294;65.988;29.172;2024-01-15T04:35:18;0.47;;;0.47;;
73102;SDS011;61294;65.988;29.172;2024-01-15T04:37:44;0.50;;;0.38;;
73102;SDS011;61294;65.988;29.172;2024-01-15T04:40:10;0.80;;;0.65;;
73102;SDS011;61294;65.988;29.172;2024-01-15T04:42:36;0.55;;;0.40;;
73102;SDS011;61294;65.988;29.172;2024-01-15T04:45:02;0.73;;;0.43;;
73102;SDS011;61294;65.988;29.172;2024-01-15T04:47:28;0.88;;;0.50;;
73102;SDS011;61294;65.988;29.172;2024-01-15T04:49:54;0.65;;;0.47;;
73102;SDS011;61294;65.988;29.172;2024-01-15T04:52:20;0.70;;;0.52;;
73102;SDS011;61294;65.988;29.172;2024-01-15T04:54:46;1.35;;;0.50;;
73102;SDS011;61294;65.988;29.172;2024-01-15T04:57:11;1.77;;;0.70;;
73102;SDS011;61294;65.988;29.172;2024-01-15T04:59:37;7.10;;;4.15;;
73102;SDS011;61294;65.988;29.172;2024-01-15T05:02:03;4.53;;;3.35;;
73102;SDS011;61294;65.988;29.172;2024-01-15T05:04:29;4.68;;;2.60;;
73102;SDS011;61294;65.988;29.172;2024-01-15T05:06:55;2.97;;;1.40;;
73102;SDS011;61294;65.988;29.172;2024-01-15T05:09:21;1.83;;;0.82;;
73102;SDS011;61294;65.988;29.172;2024-01-15T05:11:46;0.85;;;0.60;;
73102;SDS011;61294;65.988;29.172;2024-01-15T05:14:12;10.68;;;2.60;;
73102;SDS011;61294;65.988;29.172;2024-01-15T05:16:38;4.82;;;1.92;;
73102;SDS011;61294;65.988;29.172;2024-01-15T05:19:06;0.73;;;0.73;;
73102;SDS011;61294;65.988;29.172;2024-01-15T05:21:33;2.20;;;0.90;;
73102;SDS011;61294;65.988;29.172;2024-01-15T05:23:59;1.00;;;0.65;;
73102;SDS011;61294;65.988;29.172;2024-01-15T05:26:24;1.95;;;0.75;;
73102;SDS011;61294;65.988;29.172;2024-01-15T05:28:50;1.38;;;0.77;;
73102;SDS011;61294;65.988;29.172;2024-01-15T05:31:16;1.55;;;0.80;;
73102;SDS011;61294;65.988;29.172;2024-01-15T05:33:42;7.32;;;1.80;;
73102;SDS011;61294;65.988;29.172;2024-01-15T05:36:08;2.25;;;1.10;;
73102;SDS011;61294;65.988;29.172;2024-01-15T05:38:33;4.13;;;0.70;;
73102;SDS011;61294;65.988;29.172;2024-01-15T05:40:59;1.25;;;0.73;;
73102;SDS011;61294;65.988;29.172;2024-01-15T05:43:25;1.73;;;0.70;;
73102;SDS011;61294;65.988;29.172;2024-01-15T05:45:51;1.30;;;0.60;;
73102;SDS011;61294;65.988;29.172;2024-01-15T05:48:16;2.10;;;0.73;;
73102;SDS011;61294;65.988;29.172;2024-01-15T05:50:42;1.95;;;0.60;;
73102;SDS011;61294;65.988;29.172;2024-01-15T05:53:08;2.42;;;0.70;;
73102;SDS011;61294;65.988;29.172;2024-01-15T05:55:35;1.75;;;0.60;;
73102;SDS011;61294;65.988;29.172;2024-01-15T05:58:02;1.38;;;0.73;;
73102;SDS011;61294;65.988;29.172;2024-01-15T06:00:28;2.08;;;0.93;;
73102;SDS011;61294;65.988;29.172;2024-01-15T06:02:54;2.55;;;0.90;;
73102;SDS011;61294;65.988;29.172;2024-01-15T06:05:20;2.55;;;1.30;;
73102;SDS011;61294;65.988;29.172;2024-01-15T06:07:46;2.97;;;1.42;;
73102;SDS011;61294;65.988;29.172;2024-01-15T06:10:11;3.75;;;1.42;;
73102;SDS011;61294;65.988;29.172;2024-01-15T06:12:37;3.63;;;1.58;;
73102;SDS011;61294;65.988;29.172;2024-01-15T06:15:03;3.22;;;1.67;;
73102;SDS011;61294;65.988;29.172;2024-01-15T06:17:29;3.40;;;1.77;;
73102;SDS011;61294;65.988;29.172;2024-01-15T06:19:56;2.72;;;1.38;;
73102;SDS011;61294;65.988;29.172;2024-01-15T06:22:22;1.48;;;1.05;;
73102;SDS011;61294;65.988;29.172;2024-01-15T06:24:48;0.85;;;0.70;;
73102;SDS011;61294;65.988;29.172;2024-01-15T06:27:14;3.58;;;1.33;;
73102;SDS011;61294;65.988;29.172;2024-01-15T06:29:44;8.48;;;3.53;;
73102;SDS011;61294;65.988;29.172;2024-01-15T06:32:12;2.70;;;1.45;;
73102;SDS011;61294;65.988;29.172;2024-01-15T06:34:38;2.08;;;1.02;;
73102;SDS011;61294;65.988;29.172;2024-01-15T06:37:04;3.10;;;1.40;;
73102;SDS011;61294;65.988;29.172;2024-01-15T06:39:30;1.30;;;1.10;;
73102;SDS011;61294;65.988;29.172;2024-01-15T06:41:56;2.13;;;0.80;;
73102;SDS011;61294;65.988;29.172;2024-01-15T06:44:22;0.63;;;0.55;;
73102;SDS011;61294;65.988;29.172;2024-01-15T06:46:48;1.33;;;0.77;;
73102;SDS011;61294;65.988;29.172;2024-01-15T06:49:14;1.10;;;0.70;;
73102;SDS011;61294;65.988;29.172;2024-01-15T06:51:40;1.50;;;0.80;;
73102;SDS011;61294;65.988;29.172;2024-01-15T06:54:06;0.90;;;0.70;;
73102;SDS011;61294;65.988;29.172;2024-01-15T06:56:31;1.17;;;0.70;;
73102;SDS011;61294;65.988;29.172;2024-01-15T06:58:57;1.23;;;0.80;;
73102;SDS011;61294;65.988;29.172;2024-01-15T07:01:23;0.95;;;0.73;;
73102;SDS011;61294;65.988;29.172;2024-01-15T07:03:49;1.70;;;0.98;;
73102;SDS011;61294;65.988;29.172;2024-01-15T07:06:15;2.03;;;0.75;;
73102;SDS011;61294;65.988;29.172;2024-01-15T07:08:41;5.93;;;0.85;;
73102;SDS011;61294;65.988;29.172;2024-01-15T07:11:08;1.55;;;0.73;;
73102;SDS011;61294;65.988;29.172;2024-01-15T07:13:34;1.55;;;0.55;;
73102;SDS011;61294;65.988;29.172;2024-01-15T07:16:01;1.05;;;0.82;;
73102;SDS011;61294;65.988;29.172;2024-01-15T07:18:27;1.65;;;0.43;;
73102;SDS011;61294;65.988;29.172;2024-01-15T07:20:53;0.65;;;0.38;;
73102;SDS011;61294;65.988;29.172;2024-01-15T07:23:19;1.00;;;0.80;;
73102;SDS011;61294;65.988;29.172;2024-01-15T07:25:45;0.75;;;0.47;;
73102;SDS011;61294;65.988;29.172;2024-01-15T07:28:11;1.60;;;0.47;;
73102;SDS011;61294;65.988;29.172;2024-01-15T07:30:37;1.33;;;0.80;;
73102;SDS011;61294;65.988;29.172;2024-01-15T07:33:04;1.98;;;0.70;;
73102;SDS011;61294;65.988;29.172;2024-01-15T07:35:31;2.25;;;0.52;;
73102;SDS011;61294;65.988;29.172;2024-01-15T07:37:57;1.27;;;0.70;;
73102;SDS011;61294;65.988;29.172;2024-01-15T07:40:23;0.98;;;0.47;;
73102;SDS011;61294;65.988;29.172;2024-01-15T07:42:50;0.88;;;0.50;;
73102;SDS011;61294;65.988;29.172;2024-01-15T07:45:16;0.70;;;0.40;;
73102;SDS011;61294;65.988;29.172;2024-01-15T07:47:43;1.17;;;0.88;;
73102;SDS011;61294;65.988;29.172;2024-01-15T07:50:09;0.98;;;0.60;;
73102;SDS011;61294;65.988;29.172;2024-01-15T07:52:35;0.57;;;0.45;;
73102;SDS011;61294;65.988;29.172;2024-01-15T07:55:01;1.02;;;0.65;;
73102;SDS011;61294;65.988;29.172;2024-01-15T07:57:28;1.20;;;0.80;;
73102;SDS011;61294;65.988;29.172;2024-01-15T07:59:54;0.73;;;0.60;;
73102;SDS011;61294;65.988;29.172;2024-01-15T08:02:20;0.93;;;0.60;;
73102;SDS011;61294;65.988;29.172;2024-01-15T08:04:47;1.13;;;0.60;;
73102;SDS011;61294;65.988;29.172;2024-01-15T08:07:12;3.17;;;0.80;;
73102;SDS011;61294;65.988;29.172;2024-01-15T08:09:38;1.17;;;0.70;;
73102;SDS011;61294;65.988;29.172;2024-01-15T08:12:04;1.42;;;0.63;;
73102;SDS011;61294;65.988;29.172;2024-01-15T08:14:31;1.25;;;0.85;;
73102;SDS011;61294;65.988;29.172;2024-01-15T08:16:57;3.47;;;1.20;;
73102;SDS011;61294;65.988;29.172;2024-01-15T08:19:23;2.65;;;0.82;;
73102;SDS011;61294;65.988;29.172;2024-01-15T08:21:49;1.00;;;0.40;;
73102;SDS011;61294;65.988;29.172;2024-01-15T08:24:14;2.55;;;0.77;;
73102;SDS011;61294;65.988;29.172;2024-01-15T08:26:40;4.55;;;1.40;;
73102;SDS011;61294;65.988;29.172;2024-01-15T08:29:06;6.15;;;2.35;;
73102;SDS011;61294;65.988;29.172;2024-01-15T08:31:32;6.70;;;2.35;;
73102;SDS011;61294;65.988;29.172;2024-01-15T08:33:58;2.20;;;1.10;;
73102;SDS011;61294;65.988;29.172;2024-01-15T08:36:24;2.88;;;0.93;;
73102;SDS011;61294;65.988;29.172;2024-01-15T08:38:50;1.00;;;0.60;;
73102;SDS011;61294;65.988;29.172;2024-01-15T08:41:16;3.40;;;0.73;;
73102;SDS011;61294;65.988;29.172;2024-01-15T08:43:42;8.45;;;3.78;;
73102;SDS011;61294;65.988;29.172;2024-01-15T08:46:08;5.50;;;2.58;;
73102;SDS011;61294;65.988;29.172;2024-01-15T08:48:34;4.32;;;1.90;;
73102;SDS011;61294;65.988;29.172;2024-01-15T08:51:00;1.90;;;1.10;;
73102;SDS011;61294;65.988;29.172;2024-01-15T08:53:25;1.13;;;0.70;;
73102;SDS011;61294;65.988;29.172;2024-01-15T08:55:52;1.27;;;0.73;;
73102;SDS011;61294;65.988;29.172;2024-01-15T08:58:18;1.40;;;0.90;;
73102;SDS011;61294;65.988;29.172;2024-01-15T09:00:43;1.25;;;0.80;;
73102;SDS011;61294;65.988;29.172;2024-01-15T09:03:09;0.82;;;0.43;;
73102;SDS011;61294;65.988;29.172;2024-01-15T09:05:35;1.55;;;0.90;;
73102;SDS011;61294;65.988;29.172;2024-01-15T09:08:01;3.28;;;0.63;;
73102;SDS011;61294;65.988;29.172;2024-01-15T09:10:27;1.70;;;0.80;;
73102;SDS011;61294;65.988;29.172;2024-01-15T09:12:53;0.60;;;0.47;;
73102;SDS011;61294;65.988;29.172;2024-01-15T09:15:18;2.40;;;1.42;;
73102;SDS011;61294;65.988;29.172;2024-01-15T09:17:45;2.83;;;1.33;;
73102;SDS011;61294;65.988;29.172;2024-01-15T09:20:11;1.83;;;0.95;;
73102;SDS011;61294;65.988;29.172;2024-01-15T09:22:40;4.05;;;0.90;;
73102;SDS011;61294;65.988;29.172;2024-01-15T09:25:07;1.38;;;0.63;;
73102;SDS011;61294;65.988;29.172;2024-01-15T09:27:36;1.67;;;1.02;;
73102;SDS011;61294;65.988;29.172;2024-01-15T09:30:05;0.98;;;0.80;;
73102;SDS011;61294;65.988;29.172;2024-01-15T09:32:31;0.98;;;0.65;;
73102;SDS011;61294;65.988;29.172;2024-01-15T09:34:58;1.98;;;0.82;;
73102;SDS011;61294;65.988;29.172;2024-01-15T09:37:24;2.10;;;0.95;;
73102;SDS011;61294;65.988;29.172;2024-01-15T09:39:50;2.70;;;1.25;;
73102;SDS011;61294;65.988;29.172;2024-01-15T09:42:15;2.47;;;0.98;;
73102;SDS011;61294;65.988;29.172;2024-01-15T09:44:41;2.15;;;1.00;;
73102;SDS011;61294;65.988;29.172;2024-01-15T09:47:07;2.10;;;1.02;;
73102;SDS011;61294;65.988;29.172;2024-01-15T09:49:35;1.48;;;1.08;;
73102;SDS011;61294;65.988;29.172;2024-01-15T09:52:01;1.98;;;1.10;;
73102;SDS011;61294;65.988;29.172;2024-01-15T09:54:28;1.90;;;1.20;;
73102;SDS011;61294;65.988;29.172;2024-01-15T09:56:54;2.38;;;1.25;;
73102;SDS011;61294;65.988;29.172;2024-01-15T09:59:20;7.07;;;2.80;;
73102;SDS011;61294;65.988;29.172;2024-01-15T10:01:49;2.58;;;0.88;;
73102;SDS011;61294;65.988;29.172;2024-01-15T10:04:17;3.83;;;1.02;;
73102;SDS011;61294;65.988;29.172;2024-01-15T10:06:46;2.72;;;1.10;;
73102;SDS011;61294;65.988;29.172;2024-01-15T10:09:13;1.00;;;0.65;;
73102;SDS011;61294;65.988;29.172;2024-01-15T10:11:42;2.75;;;0.80;;
73102;SDS011;61294;65.988;29.172;2024-01-15T10:14:09;2.78;;;1.17;;
73102;SDS011;61294;65.988;29.172;2024-01-15T10:16:38;5.07;;;1.63;;
73102;SDS011;61294;65.988;29.172;2024-01-15T10:19:05;1.17;;;0.95;;
73102;SDS011;61294;65.988;29.172;2024-01-15T10:21:32;0.75;;;0.60;;
73102;SDS011;61294;65.988;29.172;2024-01-15T10:24:01;1.58;;;0.68;;
73102;SDS011;61294;65.988;29.172;2024-01-15T10:26:28;3.63;;;0.70;;
73102;SDS011;61294;65.988;29.172;2024-01-15T10:28:54;1.60;;;0.85;;
73102;SDS011;61294;65.988;29.172;2024-01-15T10:31:20;0.98;;;0.77;;
73102;SDS011;61294;65.988;29.172;2024-01-15T10:33:50;1.70;;;0.93;;
73102;SDS011;61294;65.988;29.172;2024-01-15T10:36:16;2.80;;;0.90;;
73102;SDS011;61294;65.988;29.172;2024-01-15T10:38:46;1.40;;;0.68;;
73102;SDS011;61294;65.988;29.172;2024-01-15T10:41:12;1.85;;;1.00;;
73102;SDS011;61294;65.988;29.172;2024-01-15T10:43:38;2.40;;;0.80;;
73102;SDS011;61294;65.988;29.172;2024-01-15T10:46:06;1.70;;;0.77;;
73102;SDS011;61294;65.988;29.172;2024-01-15T10:48:32;2.53;;;0.80;;
73102;SDS011;61294;65.988;29.172;2024-01-15T10:51:00;2.72;;;1.10;;
73102;SDS011;61294;65.988;29.172;2024-01-15T10:53:28;2.10;;;1.00;;
73102;SDS011;61294;65.988;29.172;2024-01-15T10:55:57;1.50;;;0.80;;
73102;SDS011;61294;65.988;29.172;2024-01-15T10:58:23;2.65;;;1.10;;
73102;SDS011;61294;65.988;29.172;2024-01-15T11:00:53;1.02;;;0.70;;
73102;SDS011;61294;65.988;29.172;2024-01-15T11:03:19;2.28;;;1.17;;
73102;SDS011;61294;65.988;29.172;2024-01-15T11:05:45;2.60;;;0.85;;
73102;SDS011;61294;65.988;29.172;2024-01-15T11:08:12;0.88;;;0.60;;
73102;SDS011;61294;65.988;29.172;2024-01-15T11:10:50;3.13;;;0.95;;
73102;SDS011;61294;65.988;29.172;2024-01-15T11:13:21;0.90;;;0.63;;
73102;SDS011;61294;65.988;29.172;2024-01-15T11:15:56;0.85;;;0.60;;
73102;SDS011;61294;65.988;29.172;2024-01-15T11:18:23;1.33;;;0.90;;
73102;SDS011;61294;65.988;29.172;2024-01-15T11:23:43;0.57;;;0.50;;
73102;SDS011;61294;65.988;29.172;2024-01-15T11:28:57;0.90;;;0.60;;
73102;SDS011;61294;65.988;29.172;2024-01-15T11:33:54;1.40;;;1.08;;
73102;SDS011;61294;65.988;29.172;2024-01-15T11:36:21;1.23;;;0.80;;
73102;SDS011;61294;65.988;29.172;2024-01-15T11:42:01;2.38;;;0.82;;
73102;SDS011;61294;65.988;29.172;2024-01-15T11:44:31;1.00;;;0.60;;
73102;SDS011;61294;65.988;29.172;2024-01-15T11:47:03;1.35;;;0.40;;
73102;SDS011;61294;65.988;29.172;2024-01-15T11:52:11;2.05;;;0.60;;
73102;SDS011;61294;65.988;29.172;2024-01-15T11:54:39;1.23;;;0.68;;
73102;SDS011;61294;65.988;29.172;2024-01-15T11:57:11;2.42;;;1.00;;
73102;SDS011;61294;65.988;29.172;2024-01-15T11:59:44;1.30;;;0.60;;
73102;SDS011;61294;65.988;29.172;2024-01-15T12:02:10;1.45;;;0.75;;
73102;SDS011;61294;65.988;29.172;2024-01-15T12:04:38;0.90;;;0.55;;
73102;SDS011;61294;65.988;29.172;2024-01-15T12:07:04;1.95;;;0.80;;
73102;SDS011;61294;65.988;29.172;2024-01-15T12:09:30;1.20;;;0.75;;
73102;SDS011;61294;65.988;29.172;2024-01-15T12:11:59;1.95;;;0.90;;
73102;SDS011;61294;65.988;29.172;2024-01-15T12:14:32;3.65;;;1.95;;
73102;SDS011;61294;65.988;29.172;2024-01-15T12:17:00;1.50;;;0.80;;
73102;SDS011;61294;65.988;29.172;2024-01-15T12:19:25;1.98;;;0.82;;
73102;SDS011;61294;65.988;29.172;2024-01-15T12:21:51;1.13;;;0.52;;
73102;SDS011;61294;65.988;29.172;2024-01-15T12:24:17;0.93;;;0.60;;
73102;SDS011;61294;65.988;29.172;2024-01-15T12:26:43;1.50;;;0.88;;
73102;SDS011;61294;65.988;29.172;2024-01-15T12:29:10;1.13;;;0.70;;
73102;SDS011;61294;65.988;29.172;2024-01-15T12:31:36;0.63;;;0.50;;
73102;SDS011;61294;65.988;29.172;2024-01-15T12:34:02;1.02;;;0.68;;
73102;SDS011;61294;65.988;29.172;2024-01-15T12:36:31;0.88;;;0.70;;
73102;SDS011;61294;65.988;29.172;2024-01-15T12:39:00;0.93;;;0.68;;
73102;SDS011;61294;65.988;29.172;2024-01-15T12:41:26;2.80;;;0.98;;
73102;SDS011;61294;65.988;29.172;2024-01-15T12:43:52;1.00;;;0.55;;
73102;SDS011;61294;65.988;29.172;2024-01-15T12:46:18;0.88;;;0.57;;
73102;SDS011;61294;65.988;29.172;2024-01-15T12:48:44;1.65;;;0.82;;
73102;SDS011;61294;65.988;29.172;2024-01-15T12:51:10;0.70;;;0.60;;
73102;SDS011;61294;65.988;29.172;2024-01-15T12:53:36;1.58;;;0.60;;
73102;SDS011;61294;65.988;29.172;2024-01-15T12:56:02;1.27;;;0.68;;
73102;SDS011;61294;65.988;29.172;2024-01-15T12:58:28;1.05;;;0.75;;
73102;SDS011;61294;65.988;29.172;2024-01-15T13:00:54;1.75;;;1.10;;
73102;SDS011;61294;65.988;29.172;2024-01-15T13:03:19;2.40;;;0.90;;
73102;SDS011;61294;65.988;29.172;2024-01-15T13:05:47;1.52;;;0.80;;
73102;SDS011;61294;65.988;29.172;2024-01-15T13:08:14;0.90;;;0.60;;
73102;SDS011;61294;65.988;29.172;2024-01-15T13:10:40;1.63;;;0.85;;
73102;SDS011;61294;65.988;29.172;2024-01-15T13:13:09;2.67;;;0.95;;
73102;SDS011;61294;65.988;29.172;2024-01-15T13:15:35;1.42;;;0.85;;
73102;SDS011;61294;65.988;29.172;2024-01-15T13:18:01;2.92;;;0.80;;
73102;SDS011;61294;65.988;29.172;2024-01-15T13:20:27;1.52;;;0.70;;
73102;SDS011;61294;65.988;29.172;2024-01-15T13:22:53;1.20;;;0.70;;
73102;SDS011;61294;65.988;29.172;2024-01-15T13:25:18;2.15;;;0.95;;
73102;SDS011;61294;65.988;29.172;2024-01-15T13:27:45;0.90;;;0.63;;
73102;SDS011;61294;65.988;29.172;2024-01-15T13:30:11;4.20;;;1.95;;
73102;SDS011;61294;65.988;29.172;2024-01-15T13:32:38;1.38;;;0.73;;
73102;SDS011;61294;65.988;29.172;2024-01-15T13:35:04;1.83;;;0.90;;
73102;SDS011;61294;65.988;29.172;2024-01-15T13:37:32;1.90;;;0.90;;
73102;SDS011;61294;65.988;29.172;2024-01-15T13:39:58;0.80;;;0.60;;
73102;SDS011;61294;65.988;29.172;2024-01-15T13:42:24;1.63;;;0.98;;
73102;SDS011;61294;65.988;29.172;2024-01-15T13:44:52;2.55;;;0.90;;
73102;SDS011;61294;65.988;29.172;2024-01-15T13:47:18;1.80;;;0.77;;
73102;SDS011;61294;65.988;29.172;2024-01-15T13:49:43;1.83;;;0.80;;
73102;SDS011;61294;65.988;29.172;2024-01-15T13:52:09;4.07;;;1.05;;
73102;SDS011;61294;65.988;29.172;2024-01-15T13:54:35;2.85;;;0.85;;
73102;SDS011;61294;65.988;29.172;2024-01-15T13:57:01;2.00;;;0.85;;
73102;SDS011;61294;65.988;29.172;2024-01-15T13:59:27;2.10;;;0.88;;
73102;SDS011;61294;65.988;29.172;2024-01-15T14:01:52;1.65;;;1.00;;
73102;SDS011;61294;65.988;29.172;2024-01-15T14:04:18;3.75;;;0.90;;
73102;SDS011;61294;65.988;29.172;2024-01-15T14:06:44;2.60;;;0.98;;
73102;SDS011;61294;65.988;29.172;2024-01-15T14:09:10;1.35;;;0.80;;
73102;SDS011;61294;65.988;29.172;2024-01-15T14:11:39;2.00;;;1.02;;
73102;SDS011;61294;65.988;29.172;2024-01-15T14:14:06;2.28;;;1.30;;
73102;SDS011;61294;65.988;29.172;2024-01-15T14:16:33;5.13;;;2.08;;
73102;SDS011;61294;65.988;29.172;2024-01-15T14:18:59;2.92;;;1.25;;
73102;SDS011;61294;65.988;29.172;2024-01-15T14:21:27;2.00;;;0.77;;
73102;SDS011;61294;65.988;29.172;2024-01-15T14:23:53;1.75;;;1.00;;
73102;SDS011;61294;65.988;29.172;2024-01-15T14:26:19;2.28;;;1.10;;
73102;SDS011;61294;65.988;29.172;2024-01-15T14:28:45;2.67;;;0.95;;
73102;SDS011;61294;65.988;29.172;2024-01-15T14:31:12;1.80;;;0.75;;
73102;SDS011;61294;65.988;29.172;2024-01-15T14:33:38;1.10;;;0.60;;
73102;SDS011;61294;65.988;29.172;2024-01-15T14:36:04;1.20;;;0.75;;
73102;SDS011;61294;65.988;29.172;2024-01-15T14:38:30;2.63;;;1.05;;
73102;SDS011;61294;65.988;29.172;2024-01-15T14:40:56;2.10;;;0.98;;
73102;SDS011;61294;65.988;29.172;2024-01-15T14:43:22;1.67;;;0.75;;